Impacts TAF Board INFO
FOR SITUATIONAL AWARENESS. NOT TO BE USED FOR FLIGHT PLANNING PURPOSES.
IDs:

KMSP - Minneapolis-St Paul, MN, US

Issued at 1732 UTC 18 Nov 2017
Updated at 1753 UTC 18 Nov 2017
Potential Impact None Slight Moderate High
Time1653Z 18/18Z 18/19Z 18/20Z 18/21Z 18/22Z 18/23Z 19/00Z 19/01Z 19/02Z 19/03Z 19/04Z 19/05Z 19/06Z>>
Type OBS PRVL PRVL PRVL PRVL PRVL PRVL PRVL PRVL PRVL PRVL PRVL PRVL PRVL
VIS 10 >6 >6 >6 >6 >6 >6 >6 >6 >6 >6 >6 >6 >6
CIG -- -- -- -- -- -- -- -- -- -- -- -- -- --
Cover CLR SKC SKC SCT SCT SCT SCT SCT SCT SKC SKC SKC SKC SKC
FltCat VFR VFR VFR VFR VFR VFR VFR VFR VFR VFR VFR VFR VFR VFR
WX -- -- -- -- -- -- -- -- -- -- -- -- -- --
WDir 330 320 320 310 310 310 310 310 310 310 310 310 310 310
WSpd 16 14 14 17 17 17 17 17 17 12 12 12 12 12
WGst -- 24 24 25 25 25 25 25 25 -- -- -- -- --

Raw TAF
KMSP 181732Z 1818/1924 32014G24KT P6SM SKC
  FM182000 31017G25KT P6SM SCT040
  FM190200 31012KT P6SM SKC
  FM191100 30006KT P6SM FEW250
  FM191700 23007KT P6SM BKN250


Raw METAR
KMSP 181653Z 33016KT 10SM CLR 02/M04 A2982 RMK AO2 SLP106 T00171039
KMSP 181553Z 33012KT 10SM FEW014 01/M03 A2981 RMK AO2 SLP103 T00111028
KMSP 181453Z 34009KT 10SM FEW014 BKN150 00/M02 A2980 RMK AO2 SLP101 T00001022 51021

METAR Board
Radar Display
Forecast Discussion

FOR SITUATIONAL AWARENESS. NOT TO BE USED FOR FLIGHT PLANNING PURPOSES.